Terminal Aerodrome Forecast
Issued by NWS

Home | Current Version | Previous Version | Text Only | Print | Product List | Glossary On
Versions: 1 2 3 4 5 6 7 8 9 10 11 12 13 14 15 16 17 18 19 20 21
484
FTUS43 KDVN 241007 AAC
TAFCID
TAF AMD
KCID 241007Z 2410/2506 09010KT 4SM BR BKN006
     FM241400 11008KT P6SM SCT025
     FM241500 12009KT P6SM SCT025 SCT050=

USA.gov is the U.S. government's official web portal to all federal, state and local government web resources and services.